GCTS Airport Information

Runway Information
Runway 08 Length 10499 ft width 148 ft
Elevation 187 ft Threshold 0 ft Heading 69
Runway 26 Length 10499 ft Width 148 ft
Elevation 209 ft Threshold 0 ft Heading 249
Airport Frequencies
Type APP Name APP Frequency 120.3 MHZ
Type ATIS Name ATIS Frequency 118.675 MHZ
Type GND Name GND Frequency 121.9 MHZ
Type TWR Name TWR Frequency 119 MHZ
Airport Navaids
Type NDB Name Tenerife Sur Frequency 317 KHZ
Type VOR-DME Name Tenerife Sur Frequency 116400 KHZ
Airport Weather Information & NOTAM
ADDS - METARS form results

(1548 UTC 04 December 2021)
Data provider http://aviationweather.gov/metar/data/
 
METAR text: GCTS 041530Z 07022G32KT 9999 FEW035 23/09 Q1022 NOSIG
Conditions at: GCTS (TENERIFE SUR/REI, ES) observed 1530 UTC 04 December 2021
Temperature: 23.0°C (73°F)
Dewpoint: 9.0°C (48°F) [RH = 41%]
Pressure (altimeter): 30.18 inches Hg (1022.0 mb)
Winds: from the ENE (70 degrees) at 25 MPH (22 knots; 11.3 m/s)
gusting to 37 MPH (32 knots; 16.5 m/s)
Visibility: 6 or more miles (10+ km)
Ceiling: at least 12,000 feet AGL
Clouds: few clouds at 3500 feet AGL
Weather: no significant weather observed at this time

METAR text: GCTS 041500Z 07022G32KT 9999 FEW035 23/08 Q1022 NOSIG
Conditions at: GCTS (TENERIFE SUR/REI, ES) observed 1500 UTC 04 December 2021
Temperature: 23.0°C (73°F)
Dewpoint: 8.0°C (46°F) [RH = 38%]
Pressure (altimeter): 30.18 inches Hg (1022.0 mb)
Winds: from the ENE (70 degrees) at 25 MPH (22 knots; 11.3 m/s)
gusting to 37 MPH (32 knots; 16.5 m/s)
Visibility: 6 or more miles (10+ km)
Ceiling: at least 12,000 feet AGL
Clouds: few clouds at 3500 feet AGL
Weather: no significant weather observed at this time

Forecast for: GCTS (TENERIFE SUR/REI, ES)
Text: TAF GCTS 041400Z 0415/0515 06020KT 9999 FEW035 TX23/0513Z TN17/0506Z
Forecast period: 1500 UTC 04 December 2021 to 1500 UTC 05 December 2021
Forecast type: FROM: standard forecast or significant change
Winds: from the ENE (60 degrees) at 23 MPH (20 knots; 10.3 m/s)
Visibility: 6 or more miles (10+ km)
Ceiling: at least 12,000 feet AGL
Clouds: few clouds at 3500 feet AGL
Weather: no significant weather forecast for this period
Text: TEMPO 0415/0503 06020G30KT
Forecast period: 1500 UTC 04 December 2021 to 0300 UTC 05 December 2021
Forecast type: TEMPORARY: The following changes expected for less than half the time period
Winds: from the ENE (60 degrees) at 23 MPH (20 knots; 10.3 m/s)
gusting to 34 MPH (30 knots; 15.4 m/s)
Visibility: missing
Ceiling: unknown
Clouds: missing
Weather: no significant weather forecast for this period
Text: PROB30
Forecast period: 1500 to 2100 UTC 04 December 2021
Forecast type: TEMPORARY: The following changes expected for less than half the time period
Visibility: 2.80 miles (4.51 km)
Ceiling: unknown
Clouds: missing
Weather: HZ  (haze)